Time;durP1;ratioP1;P1;durP2;ratioP2;P2;SDS_P1;SDS_P2;PMS_P1;PMS_P2;Temp;Humidity;BMP_temperature;BMP_pressure;BME280_temperature;BME280_humidity;BME280_pressure;Samples;Min_cycle;Max_cycle;Signal;HPM_P1;HPM_P2
2023/10/26 00:00:36;;;;;;;19.75;13.05;;;;;;;;;;5029416;28;20186;-66
2023/10/26 00:03:02;;;;;;;20.98;12.57;;;;;;;;;;5029775;28;20251;-66
2023/10/26 00:05:27;;;;;;;22.23;13.63;;;;;;;;;;5035004;28;20204;-66
2023/10/26 00:07:52;;;;;;;23.02;13.30;;;;;;;;;;5030997;28;20174;-65
2023/10/26 00:10:18;;;;;;;19.98;12.82;;;;;;;;;;5030414;28;20198;-66
2023/10/26 00:12:43;;;;;;;25.73;13.73;;;;;;;;;;5031698;28;20213;-66
2023/10/26 00:15:09;;;;;;;23.95;15.95;;;;;;;;;;5035222;28;20225;-66
2023/10/26 00:17:34;;;;;;;23.30;13.63;;;;;;;;;;5035595;28;20182;-66
2023/10/26 00:19:59;;;;;;;28.90;14.20;;;;;;;;;;5037142;28;20319;-66
2023/10/26 00:22:24;;;;;;;24.13;14.43;;;;;;;;;;5035372;28;20170;-66
2023/10/26 00:24:50;;;;;;;28.00;15.40;;;;;;;;;;5032885;28;20194;-66
2023/10/26 00:27:15;;;;;;;27.08;15.60;;;;;;;;;;5033001;28;20183;-66
2023/10/26 00:29:40;;;;;;;24.73;15.23;;;;;;;;;;5033071;28;20660;-66
2023/10/26 00:32:06;;;;;;;24.50;15.38;;;;;;;;;;5033199;28;20202;-66
2023/10/26 00:34:32;;;;;;;24.53;15.60;;;;;;;;;;5030673;28;20715;-65
2023/10/26 00:36:57;;;;;;;28.20;15.77;;;;;;;;;;5032384;28;20228;-65
2023/10/26 00:39:23;;;;;;;28.37;16.87;;;;;;;;;;5031283;28;20170;-65
2023/10/26 00:41:51;;;;;;;28.67;17.13;;;;;;;;;;5033087;28;20182;-66
2023/10/26 00:44:16;;;;;;;31.57;19.77;;;;;;;;;;5031668;28;20256;-65
2023/10/26 00:46:42;;;;;;;34.47;19.23;;;;;;;;;;5032858;28;20178;-65
2023/10/26 00:49:07;;;;;;;30.92;19.90;;;;;;;;;;5034440;28;20647;-65
2023/10/26 00:51:33;;;;;;;34.33;19.38;;;;;;;;;;5032945;28;20202;-65
2023/10/26 00:53:58;;;;;;;32.33;19.25;;;;;;;;;;5031547;28;20599;-65
2023/10/26 00:56:25;;;;;;;29.15;18.10;;;;;;;;;;5030803;28;20702;-65
2023/10/26 00:58:50;;;;;;;28.43;17.47;;;;;;;;;;5031364;28;20182;-65
2023/10/26 01:01:16;;;;;;;29.63;16.50;;;;;;;;;;5033029;28;20182;-65
2023/10/26 01:03:41;;;;;;;27.33;16.83;;;;;;;;;;5034057;28;20202;-67
2023/10/26 01:06:08;;;;;;;28.43;17.03;;;;;;;;;;5033965;28;20175;-65
2023/10/26 01:08:33;;;;;;;27.08;16.80;;;;;;;;;;5032461;28;20178;-65
2023/10/26 01:10:59;;;;;;;26.17;16.13;;;;;;;;;;5033591;28;20180;-66
2023/10/26 01:13:24;;;;;;;28.60;17.13;;;;;;;;;;5032484;28;20229;-65
2023/10/26 01:15:50;;;;;;;27.73;15.98;;;;;;;;;;5033020;28;20570;-65
2023/10/26 01:18:15;;;;;;;23.45;15.75;;;;;;;;;;5032365;28;20225;-65
2023/10/26 01:20:41;;;;;;;35.83;17.73;;;;;;;;;;5032311;28;20594;-66
2023/10/26 01:23:07;;;;;;;28.03;16.53;;;;;;;;;;5049212;28;20178;-66
2023/10/26 01:25:32;;;;;;;25.35;16.23;;;;;;;;;;5038184;28;20188;-66
2023/10/26 01:27:57;;;;;;;26.42;16.33;;;;;;;;;;5031877;28;20174;-66
2023/10/26 01:30:22;;;;;;;23.07;14.73;;;;;;;;;;5032148;28;20178;-66
2023/10/26 01:32:48;;;;;;;26.10;15.85;;;;;;;;;;5031254;28;20206;-65
2023/10/26 01:35:13;;;;;;;27.73;16.30;;;;;;;;;;5030540;28;20249;-66
2023/10/26 01:37:39;;;;;;;27.67;16.95;;;;;;;;;;5029918;28;20680;-66
2023/10/26 01:40:05;;;;;;;27.15;15.93;;;;;;;;;;5031974;28;20177;-66
2023/10/26 01:42:30;;;;;;;28.07;17.10;;;;;;;;;;5031281;28;20186;-66
2023/10/26 01:44:56;;;;;;;26.45;16.50;;;;;;;;;;5030437;28;20595;-66
2023/10/26 01:47:21;;;;;;;30.17;16.98;;;;;;;;;;5031254;28;20190;-66
2023/10/26 01:49:46;;;;;;;26.95;16.00;;;;;;;;;;5031431;28;20202;-66
2023/10/26 01:52:11;;;;;;;26.42;15.90;;;;;;;;;;5031850;28;20334;-66
2023/10/26 01:54:36;;;;;;;25.73;16.07;;;;;;;;;;5032021;28;20662;-66
2023/10/26 01:57:02;;;;;;;26.02;16.27;;;;;;;;;;5035049;28;20189;-66
2023/10/26 01:59:28;;;;;;;24.30;13.98;;;;;;;;;;5029799;28;20174;-66
2023/10/26 02:01:53;;;;;;;26.47;16.07;;;;;;;;;;5030648;28;20261;-66
2023/10/26 02:04:18;;;;;;;23.25;15.75;;;;;;;;;;5033596;28;20210;-66
2023/10/26 02:06:43;;;;;;;25.38;15.93;;;;;;;;;;5032505;28;20696;-66
2023/10/26 02:09:08;;;;;;;34.60;19.57;;;;;;;;;;5033381;28;20464;-65
2023/10/26 02:11:34;;;;;;;30.80;19.00;;;;;;;;;;5032420;28;20201;-66
2023/10/26 02:13:59;;;;;;;32.30;18.77;;;;;;;;;;5029674;28;20231;-66
2023/10/26 02:16:24;;;;;;;32.80;18.73;;;;;;;;;;5036448;28;20645;-66
2023/10/26 02:18:49;;;;;;;33.00;19.40;;;;;;;;;;5031647;28;20722;-66
2023/10/26 02:21:14;;;;;;;30.90;19.27;;;;;;;;;;5031494;28;20717;-66
2023/10/26 02:23:41;;;;;;;37.13;22.10;;;;;;;;;;5030222;28;20782;-66
2023/10/26 02:26:06;;;;;;;45.70;25.70;;;;;;;;;;5031571;28;20183;-66
2023/10/26 02:28:31;;;;;;;40.40;22.43;;;;;;;;;;5030690;28;20301;-66
2023/10/26 02:30:56;;;;;;;48.90;26.77;;;;;;;;;;5030570;28;20253;-66
2023/10/26 02:33:21;;;;;;;42.67;24.33;;;;;;;;;;5029135;28;20283;-66
2023/10/26 02:35:47;;;;;;;39.33;22.17;;;;;;;;;;5031403;28;20175;-66
2023/10/26 02:38:12;;;;;;;39.37;21.87;;;;;;;;;;5029138;28;20178;-66
2023/10/26 02:40:37;;;;;;;42.37;24.20;;;;;;;;;;5030435;28;20725;-66
2023/10/26 02:43:03;;;;;;;39.03;22.50;;;;;;;;;;5031331;28;20205;-66
2023/10/26 02:45:29;;;;;;;41.40;23.83;;;;;;;;;;5031001;28;20359;-66
2023/10/26 02:47:54;;;;;;;35.93;22.00;;;;;;;;;;5027252;28;20273;-66
2023/10/26 02:50:19;;;;;;;40.50;23.30;;;;;;;;;;5029726;28;20193;-66
2023/10/26 02:52:44;;;;;;;42.77;24.87;;;;;;;;;;5030200;28;20584;-66
2023/10/26 02:55:10;;;;;;;44.53;26.03;;;;;;;;;;5032091;28;20218;-66
2023/10/26 02:57:35;;;;;;;50.47;28.47;;;;;;;;;;5029475;28;20188;-66
2023/10/26 03:00:00;;;;;;;53.37;29.83;;;;;;;;;;5030500;28;20167;-66
2023/10/26 03:02:26;;;;;;;58.43;30.30;;;;;;;;;;5031497;28;20170;-66
2023/10/26 03:04:51;;;;;;;59.03;30.73;;;;;;;;;;5029824;28;20200;-66
2023/10/26 03:07:22;;;;;;;52.30;29.20;;;;;;;;;;5032658;28;20175;-66
2023/10/26 03:09:47;;;;;;;54.23;29.90;;;;;;;;;;5030982;28;20656;-66
2023/10/26 03:12:12;;;;;;;52.23;30.13;;;;;;;;;;5032111;28;20206;-66
2023/10/26 03:14:38;;;;;;;53.67;29.63;;;;;;;;;;5030459;28;20619;-66
2023/10/26 03:17:03;;;;;;;48.13;29.07;;;;;;;;;;5030541;28;20178;-66
2023/10/26 03:19:28;;;;;;;49.57;27.27;;;;;;;;;;5030870;28;20177;-66
2023/10/26 03:21:53;;;;;;;57.73;29.77;;;;;;;;;;5027808;28;20307;-66
2023/10/26 03:24:19;;;;;;;64.27;29.60;;;;;;;;;;5030302;28;20289;-66
2023/10/26 03:26:44;;;;;;;52.13;26.83;;;;;;;;;;5030174;28;20189;-66
2023/10/26 03:29:09;;;;;;;44.23;27.33;;;;;;;;;;5030462;28;20593;-66
2023/10/26 03:31:36;;;;;;;86.00;31.27;;;;;;;;;;5046505;28;20232;-66
2023/10/26 03:34:01;;;;;;;47.07;29.13;;;;;;;;;;5028884;28;20213;-66
2023/10/26 03:36:26;;;;;;;244.87;45.30;;;;;;;;;;5030467;28;20725;-66
2023/10/26 03:38:52;;;;;;;176.20;39.73;;;;;;;;;;5029608;28;20567;-66
2023/10/26 03:41:18;;;;;;;115.93;34.87;;;;;;;;;;5030373;28;20254;-66
2023/10/26 03:43:43;;;;;;;168.77;39.60;;;;;;;;;;5029377;28;20199;-65
2023/10/26 03:46:09;;;;;;;160.40;37.17;;;;;;;;;;5030748;28;20595;-65
2023/10/26 03:48:35;;;;;;;55.00;27.30;;;;;;;;;;5031696;28;20668;-65
2023/10/26 03:51:00;;;;;;;33.13;22.07;;;;;;;;;;5034158;28;20182;-65
2023/10/26 03:53:26;;;;;;;33.20;21.53;;;;;;;;;;5046221;28;20210;-66
2023/10/26 03:55:51;;;;;;;35.80;22.67;;;;;;;;;;5037531;28;20586;-66
2023/10/26 03:58:17;;;;;;;37.20;22.73;;;;;;;;;;5033078;28;20236;-65
2023/10/26 04:00:42;;;;;;;37.10;22.43;;;;;;;;;;5033648;28;20544;-65
2023/10/26 04:03:07;;;;;;;35.30;21.50;;;;;;;;;;5032626;28;20190;-66
2023/10/26 04:05:33;;;;;;;29.93;19.77;;;;;;;;;;5038222;28;20182;-67
2023/10/26 04:08:00;;;;;;;24.37;16.97;;;;;;;;;;5032869;28;20182;-65
2023/10/26 04:10:26;;;;;;;60.27;23.97;;;;;;;;;;5035951;28;20193;-65
2023/10/26 04:12:51;;;;;;;27.73;18.00;;;;;;;;;;5035890;28;20361;-65
2023/10/26 04:15:16;;;;;;;32.23;19.70;;;;;;;;;;5036173;28;20209;-66
2023/10/26 04:17:41;;;;;;;37.73;20.83;;;;;;;;;;5035374;28;20189;-66
2023/10/26 04:20:07;;;;;;;31.37;20.50;;;;;;;;;;5033114;28;20186;-66
2023/10/26 04:22:32;;;;;;;34.93;21.70;;;;;;;;;;5032623;28;20185;-66
2023/10/26 04:24:58;;;;;;;32.73;19.53;;;;;;;;;;5032561;28;20623;-66
2023/10/26 04:27:23;;;;;;;32.17;19.20;;;;;;;;;;5038837;28;20231;-66
2023/10/26 04:29:48;;;;;;;43.80;21.63;;;;;;;;;;5032528;28;20269;-66
2023/10/26 04:32:13;;;;;;;28.73;20.70;;;;;;;;;;5033411;28;20213;-66
2023/10/26 04:34:43;;;;;;;41.40;26.10;;;;;;;;;;5033625;28;20206;-66
2023/10/26 04:37:09;;;;;;;37.27;24.03;;;;;;;;;;5049764;28;20170;-66
2023/10/26 04:39:34;;;;;;;33.77;24.43;;;;;;;;;;5038223;28;20185;-66
2023/10/26 04:41:59;;;;;;;39.27;26.13;;;;;;;;;;5033522;28;20611;-66
2023/10/26 04:44:24;;;;;;;41.07;25.87;;;;;;;;;;5033323;28;20202;-66
2023/10/26 04:46:49;;;;;;;43.30;29.03;;;;;;;;;;5032083;28;20186;-66
2023/10/26 04:49:15;;;;;;;45.53;29.33;;;;;;;;;;5048806;28;20229;-66
2023/10/26 04:51:40;;;;;;;47.73;30.07;;;;;;;;;;5032687;28;20191;-66
2023/10/26 04:54:05;;;;;;;50.70;28.77;;;;;;;;;;5033020;28;20190;-66
2023/10/26 04:56:30;;;;;;;77.70;33.33;;;;;;;;;;5032802;28;20638;-66
2023/10/26 04:58:55;;;;;;;55.27;32.70;;;;;;;;;;5032847;28;20182;-66
2023/10/26 05:01:21;;;;;;;60.37;29.97;;;;;;;;;;5034908;28;20194;-66
2023/10/26 05:03:46;;;;;;;60.27;31.70;;;;;;;;;;5033133;28;20225;-66
2023/10/26 05:06:11;;;;;;;52.90;30.47;;;;;;;;;;5034210;28;20185;-66
2023/10/26 05:08:36;;;;;;;64.07;28.87;;;;;;;;;;5032869;28;20645;-66
2023/10/26 05:11:02;;;;;;;42.10;26.67;;;;;;;;;;5034735;28;20174;-66
2023/10/26 05:13:28;;;;;;;44.63;26.20;;;;;;;;;;5032821;28;20206;-66
2023/10/26 05:15:53;;;;;;;90.17;29.73;;;;;;;;;;5032523;28;20179;-66
2023/10/26 05:18:18;;;;;;;48.17;23.60;;;;;;;;;;5032458;28;20560;-66
2023/10/26 05:20:50;;;;;;;47.37;23.30;;;;;;;;;;5030135;28;20170;-66
2023/10/26 05:23:15;;;;;;;57.47;23.57;;;;;;;;;;5032541;28;20186;-66
2023/10/26 05:25:40;;;;;;;33.97;20.67;;;;;;;;;;5032639;28;20232;-66
2023/10/26 05:28:06;;;;;;;34.03;18.33;;;;;;;;;;5032023;28;20206;-66
2023/10/26 05:30:31;;;;;;;38.13;20.20;;;;;;;;;;5036244;28;20177;-66
2023/10/26 05:32:56;;;;;;;69.57;21.53;;;;;;;;;;5031680;28;20832;-66
2023/10/26 05:35:22;;;;;;;26.40;18.60;;;;;;;;;;5029703;28;20238;-66
2023/10/26 05:37:47;;;;;;;26.07;17.33;;;;;;;;;;5027825;28;20202;-66
2023/10/26 05:40:12;;;;;;;33.47;17.20;;;;;;;;;;5041361;28;20202;-67
2023/10/26 05:42:37;;;;;;;24.47;16.00;;;;;;;;;;5029980;28;20183;-66
2023/10/26 05:45:03;;;;;;;23.70;15.37;;;;;;;;;;5031370;28;20688;-66
2023/10/26 05:47:28;;;;;;;51.97;18.23;;;;;;;;;;5031040;28;20179;-66
2023/10/26 05:49:54;;;;;;;65.90;19.80;;;;;;;;;;5031980;28;20181;-66
2023/10/26 05:52:19;;;;;;;50.97;18.47;;;;;;;;;;5030502;28;20243;-66
2023/10/26 05:54:46;;;;;;;35.37;17.87;;;;;;;;;;5032555;28;20199;-66
2023/10/26 05:57:11;;;;;;;21.13;14.13;;;;;;;;;;5029971;28;20170;-66
2023/10/26 05:59:36;;;;;;;19.70;12.57;;;;;;;;;;5030365;28;20681;-66
2023/10/26 06:02:02;;;;;;;19.30;12.83;;;;;;;;;;5030259;28;20287;-66
2023/10/26 06:04:27;;;;;;;39.87;14.23;;;;;;;;;;5029237;28;20205;-66
2023/10/26 06:06:52;;;;;;;66.93;15.90;;;;;;;;;;5032807;28;20499;-66
2023/10/26 06:09:17;;;;;;;49.27;15.00;;;;;;;;;;5030940;28;20182;-66
2023/10/26 06:11:43;;;;;;;46.13;15.00;;;;;;;;;;5031736;28;20572;-66
2023/10/26 06:14:08;;;;;;;26.73;11.23;;;;;;;;;;5032047;28;20212;-66
2023/10/26 06:16:34;;;;;;;23.03;12.07;;;;;;;;;;5031964;28;20173;-66
2023/10/26 06:18:59;;;;;;;43.40;13.87;;;;;;;;;;5028744;28;20627;-66
2023/10/26 06:21:24;;;;;;;23.90;13.13;;;;;;;;;;5031576;28;20174;-66
2023/10/26 06:23:49;;;;;;;21.77;12.23;;;;;;;;;;5030377;28;20721;-66
2023/10/26 06:26:15;;;;;;;20.47;12.20;;;;;;;;;;5030976;28;20206;-66
2023/10/26 06:28:40;;;;;;;34.90;14.13;;;;;;;;;;5031347;28;20205;-66
2023/10/26 06:31:09;;;;;;;30.87;14.37;;;;;;;;;;5030890;28;20225;-66
2023/10/26 06:33:34;;;;;;;24.33;11.70;;;;;;;;;;5029802;28;20210;-66
2023/10/26 06:35:59;;;;;;;34.27;13.90;;;;;;;;;;5031362;28;20236;-66
2023/10/26 06:38:25;;;;;;;36.67;14.47;;;;;;;;;;5030233;28;20182;-66
2023/10/26 06:40:50;;;;;;;22.77;13.03;;;;;;;;;;5030098;28;20178;-66
2023/10/26 06:43:15;;;;;;;29.40;13.47;;;;;;;;;;5029912;28;20679;-66
2023/10/26 06:45:41;;;;;;;18.10;10.83;;;;;;;;;;5031016;28;20654;-66
2023/10/26 06:48:06;;;;;;;24.17;13.10;;;;;;;;;;5029618;28;20193;-66
2023/10/26 06:50:31;;;;;;;33.80;13.30;;;;;;;;;;5024169;28;20262;-66
2023/10/26 06:52:56;;;;;;;23.60;12.97;;;;;;;;;;5029800;28;20693;-66
2023/10/26 06:55:21;;;;;;;32.10;13.67;;;;;;;;;;5030806;28;20197;-66
2023/10/26 06:57:47;;;;;;;22.00;12.90;;;;;;;;;;5029922;28;20175;-66
2023/10/26 07:00:12;;;;;;;21.53;12.60;;;;;;;;;;5030288;28;20182;-66
2023/10/26 07:02:37;;;;;;;71.70;16.77;;;;;;;;;;5033330;28;20221;-66
2023/10/26 07:05:03;;;;;;;52.37;15.53;;;;;;;;;;5032504;28;20556;-66
2023/10/26 07:07:30;;;;;;;25.00;12.83;;;;;;;;;;5033855;28;20535;-66
2023/10/26 07:09:55;;;;;;;32.77;15.00;;;;;;;;;;5033599;28;20177;-66
2023/10/26 07:12:21;;;;;;;39.50;14.37;;;;;;;;;;5032695;28;20194;-66
2023/10/26 07:14:46;;;;;;;29.40;14.00;;;;;;;;;;5031520;28;20236;-66
2023/10/26 07:17:11;;;;;;;31.07;15.10;;;;;;;;;;5031317;28;20815;-66
2023/10/26 07:19:36;;;;;;;44.50;16.23;;;;;;;;;;5030138;28;20656;-66
2023/10/26 07:22:02;;;;;;;51.53;18.30;;;;;;;;;;5030584;28;20174;-66
2023/10/26 07:24:29;;;;;;;50.23;17.93;;;;;;;;;;5031969;28;20204;-66
2023/10/26 07:26:54;;;;;;;101.97;21.43;;;;;;;;;;5034147;28;20185;-67
2023/10/26 07:29:19;;;;;;;42.43;16.73;;;;;;;;;;5034630;28;20731;-67
2023/10/26 07:31:44;;;;;;;50.00;16.70;;;;;;;;;;5033651;28;20198;-66
2023/10/26 07:34:10;;;;;;;49.27;17.63;;;;;;;;;;5031831;28;20223;-65
2023/10/26 07:36:35;;;;;;;33.40;17.25;;;;;;;;;;5033555;28;20174;-66
2023/10/26 07:39:00;;;;;;;81.32;20.58;;;;;;;;;;5033647;28;20182;-66
2023/10/26 07:41:26;;;;;;;53.45;16.83;;;;;;;;;;5033757;28;20206;-66
2023/10/26 07:43:51;;;;;;;42.65;18.50;;;;;;;;;;5033178;28;20214;-66
2023/10/26 07:46:16;;;;;;;50.13;18.30;;;;;;;;;;5034463;28;20581;-66
2023/10/26 07:48:42;;;;;;;51.77;20.77;;;;;;;;;;5048517;28;20606;-66
2023/10/26 07:51:07;;;;;;;105.95;23.00;;;;;;;;;;5033282;28;20182;-65
2023/10/26 07:53:33;;;;;;;49.23;18.17;;;;;;;;;;5034098;28;20209;-66
2023/10/26 07:55:58;;;;;;;47.60;20.03;;;;;;;;;;5030681;28;20661;-65
2023/10/26 07:58:24;;;;;;;47.20;18.93;;;;;;;;;;5033850;28;20174;-65
2023/10/26 08:00:50;;;;;;;39.63;18.52;;;;;;;;;;5034084;28;20182;-66
2023/10/26 08:03:15;;;;;;;40.90;17.17;;;;;;;;;;5030476;28;20325;-65
2023/10/26 08:05:40;;;;;;;42.97;18.27;;;;;;;;;;5039523;28;20184;-65
2023/10/26 08:08:05;;;;;;;43.03;19.75;;;;;;;;;;5034146;28;20182;-66
2023/10/26 08:10:35;;;;;;;41.85;19.00;;;;;;;;;;5035580;28;20190;-65
2023/10/26 08:13:00;;;;;;;43.47;18.42;;;;;;;;;;5034272;28;20229;-66
2023/10/26 08:15:25;;;;;;;39.90;18.67;;;;;;;;;;5036929;28;20728;-65
2023/10/26 08:17:51;;;;;;;58.28;23.10;;;;;;;;;;5033547;28;20208;-65
2023/10/26 08:20:16;;;;;;;45.78;21.35;;;;;;;;;;5033651;28;20612;-65
2023/10/26 08:22:41;;;;;;;65.25;21.13;;;;;;;;;;5035009;28;20178;-65
2023/10/26 08:25:07;;;;;;;45.33;20.27;;;;;;;;;;5033241;28;20206;-65
2023/10/26 08:27:32;;;;;;;42.63;20.65;;;;;;;;;;5033773;28;20178;-66
2023/10/26 08:29:57;;;;;;;59.55;22.65;;;;;;;;;;5032673;28;20571;-66
2023/10/26 08:32:23;;;;;;;56.83;23.13;;;;;;;;;;5032130;28;20224;-66
2023/10/26 08:34:48;;;;;;;42.40;20.63;;;;;;;;;;5032319;28;20248;-65
2023/10/26 08:37:14;;;;;;;53.00;21.80;;;;;;;;;;5030616;28;20182;-64
2023/10/26 08:39:39;;;;;;;39.72;20.17;;;;;;;;;;5038583;28;20206;-66
2023/10/26 08:42:04;;;;;;;44.30;22.45;;;;;;;;;;5033042;28;20193;-65
2023/10/26 08:44:31;;;;;;;53.05;22.45;;;;;;;;;;5031513;28;20251;-65
2023/10/26 08:47:01;;;;;;;62.13;22.17;;;;;;;;;;5032670;28;20213;-64
2023/10/26 08:49:27;;;;;;;48.03;19.85;;;;;;;;;;5025468;28;20626;-65
2023/10/26 08:51:52;;;;;;;49.13;20.42;;;;;;;;;;5032823;28;20289;-65
2023/10/26 08:54:18;;;;;;;51.45;22.25;;;;;;;;;;5033450;28;20202;-65
2023/10/26 08:56:43;;;;;;;51.00;22.52;;;;;;;;;;5032142;28;20321;-65
2023/10/26 08:59:08;;;;;;;48.17;20.33;;;;;;;;;;5031467;28;20304;-66
2023/10/26 09:01:33;;;;;;;49.83;20.98;;;;;;;;;;5029638;28;20167;-65
2023/10/26 09:04:06;;;;;;;55.42;21.38;;;;;;;;;;5033012;28;20685;-66
2023/10/26 09:06:48;;;;;;;51.38;22.17;;;;;;;;;;5025383;28;20174;-65
2023/10/26 09:09:14;;;;;;;55.97;20.83;;;;;;;;;;5032580;28;20197;-65
2023/10/26 09:11:40;;;;;;;50.42;20.15;;;;;;;;;;5033088;28;20646;-65
2023/10/26 09:14:14;;;;;;;44.97;20.48;;;;;;;;;;5032602;28;20206;-65
2023/10/26 09:16:41;;;;;;;46.50;20.65;;;;;;;;;;5032882;28;20665;-65
2023/10/26 09:19:06;;;;;;;47.63;20.63;;;;;;;;;;5031150;28;20178;-65
2023/10/26 09:21:47;;;;;;;48.72;22.15;;;;;;;;;;5032948;28;20200;-65
2023/10/26 09:24:24;;;;;;;41.08;19.65;;;;;;;;;;5030804;28;20197;-65
2023/10/26 09:26:50;;;;;;;55.63;23.10;;;;;;;;;;5032443;28;20173;-65
2023/10/26 09:29:15;;;;;;;49.30;22.05;;;;;;;;;;5032429;28;20170;-65
2023/10/26 09:31:52;;;;;;;46.28;20.10;;;;;;;;;;5032470;28;20194;-65
2023/10/26 09:34:17;;;;;;;43.78;20.40;;;;;;;;;;5031703;28;20244;-65
2023/10/26 09:36:56;;;;;;;47.80;19.83;;;;;;;;;;5032197;28;20272;-65
2023/10/26 09:39:22;;;;;;;47.58;20.35;;;;;;;;;;5029599;28;20182;-65
2023/10/26 09:41:47;;;;;;;45.95;19.85;;;;;;;;;;5031855;28;20197;-64
2023/10/26 09:44:12;;;;;;;39.50;18.00;;;;;;;;;;5031388;28;20198;-65
2023/10/26 09:46:37;;;;;;;37.00;17.25;;;;;;;;;;5032368;28;20179;-65
2023/10/26 09:49:03;;;;;;;39.55;18.05;;;;;;;;;;5032409;28;20178;-65
2023/10/26 09:51:28;;;;;;;37.80;18.05;;;;;;;;;;5031390;28;20961;-65
2023/10/26 09:53:54;;;;;;;35.08;16.88;;;;;;;;;;5030925;28;20197;-65
2023/10/26 09:56:22;;;;;;;30.63;14.05;;;;;;;;;;5031843;28;20189;-65
2023/10/26 09:58:48;;;;;;;27.85;15.07;;;;;;;;;;5032553;28;20283;-65
2023/10/26 10:01:32;;;;;;;21.80;12.65;;;;;;;;;;5035552;28;20651;-65
2023/10/26 10:03:58;;;;;;;24.40;13.27;;;;;;;;;;5030945;28;20190;-64
2023/10/26 10:06:42;;;;;;;23.33;13.60;;;;;;;;;;5034414;28;20178;-63
2023/10/26 10:09:07;;;;;;;22.67;12.93;;;;;;;;;;5034305;28;20205;-64
2023/10/26 10:11:32;;;;;;;19.92;10.95;;;;;;;;;;5031870;28;20256;-64
2023/10/26 10:13:57;;;;;;;22.50;12.10;;;;;;;;;;5035504;28;20195;-64
2023/10/26 10:16:35;;;;;;;16.35;10.20;;;;;;;;;;5031526;28;20185;-64
2023/10/26 10:19:16;;;;;;;16.55;9.93;;;;;;;;;;5032351;28;20233;-65
2023/10/26 10:21:41;;;;;;;13.02;9.15;;;;;;;;;;5030763;28;20208;-64
2023/10/26 10:24:06;;;;;;;12.40;8.98;;;;;;;;;;5031405;28;20190;-65
2023/10/26 10:26:51;;;;;;;13.80;8.73;;;;;;;;;;5031173;28;20385;-65
2023/10/26 10:29:18;;;;;;;13.38;9.60;;;;;;;;;;5030284;28;20669;-65
2023/10/26 10:31:44;;;;;;;18.05;10.90;;;;;;;;;;5028830;28;20212;-64
2023/10/26 10:34:10;;;;;;;18.55;10.32;;;;;;;;;;5027932;28;20205;-65
2023/10/26 10:37:02;;;;;;;13.93;9.52;;;;;;;;;;5029742;28;20195;-63
2023/10/26 10:39:27;;;;;;;14.43;9.07;;;;;;;;;;5030266;28;20715;-64
2023/10/26 10:41:52;;;;;;;15.50;9.07;;;;;;;;;;5031394;28;20209;-64
2023/10/26 10:44:18;;;;;;;16.67;10.30;;;;;;;;;;5029809;28;20198;-66
2023/10/26 10:46:46;;;;;;;14.95;9.13;;;;;;;;;;5031178;28;20252;-63
2023/10/26 10:49:12;;;;;;;14.32;10.38;;;;;;;;;;5031033;28;20201;-62
2023/10/26 10:51:41;;;;;;;17.67;9.45;;;;;;;;;;5029627;28;20642;-64
2023/10/26 10:54:10;;;;;;;13.90;9.38;;;;;;;;;;5031071;28;20206;-64
2023/10/26 10:56:39;;;;;;;15.73;9.48;;;;;;;;;;5028297;28;20209;-65
2023/10/26 10:59:21;;;;;;;16.42;9.20;;;;;;;;;;5026456;28;20174;-64
2023/10/26 11:01:47;;;;;;;17.15;9.40;;;;;;;;;;5030308;28;20178;-64
2023/10/26 11:04:15;;;;;;;14.02;9.40;;;;;;;;;;5054303;28;20225;-64
2023/10/26 11:06:45;;;;;;;15.77;9.75;;;;;;;;;;5025451;28;20174;-64
2023/10/26 11:09:20;;;;;;;14.57;9.40;;;;;;;;;;5028510;28;20542;-64
2023/10/26 11:11:45;;;;;;;13.57;9.77;;;;;;;;;;5048228;28;20182;-65
2023/10/26 11:14:10;;;;;;;15.32;9.75;;;;;;;;;;5030454;28;20204;-64
2023/10/26 11:16:36;;;;;;;17.05;11.07;;;;;;;;;;5030731;28;20654;-64
2023/10/26 11:19:02;;;;;;;15.52;8.80;;;;;;;;;;5030177;28;20175;-63
2023/10/26 11:21:27;;;;;;;15.10;9.73;;;;;;;;;;5030377;28;20192;-64
2023/10/26 11:23:52;;;;;;;18.13;11.57;;;;;;;;;;5031112;28;20190;-64
2023/10/26 11:26:17;;;;;;;16.08;9.50;;;;;;;;;;5030142;28;20681;-65
2023/10/26 11:28:43;;;;;;;16.23;10.77;;;;;;;;;;5031133;28;20260;-64
2023/10/26 11:31:08;;;;;;;17.75;10.23;;;;;;;;;;5025886;28;20189;-65
2023/10/26 11:33:33;;;;;;;16.42;10.55;;;;;;;;;;5029205;28;20198;-65
2023/10/26 11:35:59;;;;;;;16.98;9.70;;;;;;;;;;5028974;28;20178;-65
2023/10/26 11:38:26;;;;;;;19.73;11.35;;;;;;;;;;5027587;28;20185;-65
2023/10/26 11:40:51;;;;;;;14.18;9.98;;;;;;;;;;5030114;28;20185;-64
2023/10/26 11:43:29;;;;;;;15.93;10.38;;;;;;;;;;5028383;28;20194;-64
2023/10/26 11:45:54;;;;;;;13.95;9.90;;;;;;;;;;5029684;28;20539;-65
2023/10/26 11:48:30;;;;;;;15.73;10.23;;;;;;;;;;5045752;28;20181;-64
2023/10/26 11:50:56;;;;;;;17.55;9.60;;;;;;;;;;5029859;28;20673;-64
2023/10/26 11:53:22;;;;;;;16.70;9.73;;;;;;;;;;5030233;28;20260;-65
2023/10/26 11:55:48;;;;;;;19.13;11.52;;;;;;;;;;5029314;28;20179;-65
2023/10/26 11:58:13;;;;;;;19.38;11.18;;;;;;;;;;5028869;28;20260;-64
2023/10/26 12:00:38;;;;;;;21.38;11.68;;;;;;;;;;5031321;28;20174;-65
2023/10/26 12:03:03;;;;;;;19.05;11.15;;;;;;;;;;5030564;28;20612;-64
2023/10/26 12:05:28;;;;;;;17.65;10.82;;;;;;;;;;5032603;28;20231;-65
2023/10/26 12:07:54;;;;;;;21.50;11.38;;;;;;;;;;5030364;28;20174;-65
2023/10/26 12:10:20;;;;;;;20.40;12.18;;;;;;;;;;5031194;28;20179;-65
2023/10/26 12:12:46;;;;;;;20.40;11.38;;;;;;;;;;5034241;28;20201;-65
2023/10/26 12:15:11;;;;;;;20.63;10.23;;;;;;;;;;5032898;28;20232;-65
2023/10/26 12:17:37;;;;;;;18.00;10.63;;;;;;;;;;5031117;28;20206;-65
2023/10/26 12:20:03;;;;;;;20.67;10.85;;;;;;;;;;5032948;28;20178;-65
2023/10/26 12:22:28;;;;;;;16.35;10.15;;;;;;;;;;5032469;28;20197;-65
2023/10/26 12:24:54;;;;;;;16.90;10.50;;;;;;;;;;5032854;28;20731;-65
2023/10/26 12:27:20;;;;;;;22.08;11.27;;;;;;;;;;5032703;28;20185;-65
2023/10/26 12:29:45;;;;;;;19.15;11.52;;;;;;;;;;5033109;28;20189;-65
2023/10/26 12:32:11;;;;;;;18.05;11.25;;;;;;;;;;5031580;28;20210;-64
2023/10/26 12:34:36;;;;;;;17.27;10.55;;;;;;;;;;5032643;28;20202;-64
2023/10/26 12:37:02;;;;;;;17.75;10.65;;;;;;;;;;5031538;28;20669;-64
2023/10/26 12:39:27;;;;;;;17.65;10.65;;;;;;;;;;5031908;28;21066;-65
2023/10/26 12:41:52;;;;;;;20.10;11.88;;;;;;;;;;5032702;28;20210;-66
2023/10/26 12:44:20;;;;;;;16.80;10.23;;;;;;;;;;5033107;28;20331;-65
2023/10/26 12:46:45;;;;;;;17.58;9.40;;;;;;;;;;5030582;28;20278;-65
2023/10/26 12:49:10;;;;;;;15.63;9.38;;;;;;;;;;5031980;28;20560;-65
2023/10/26 12:51:36;;;;;;;18.42;10.68;;;;;;;;;;5032276;28;20217;-65
2023/10/26 12:54:01;;;;;;;16.40;10.93;;;;;;;;;;5032348;28;20198;-65
2023/10/26 12:56:26;;;;;;;17.70;10.88;;;;;;;;;;5030730;28;20197;-65
2023/10/26 12:58:51;;;;;;;16.45;9.95;;;;;;;;;;5031901;28;20542;-64
2023/10/26 13:01:16;;;;;;;14.13;9.68;;;;;;;;;;5033755;28;20261;-65
2023/10/26 13:03:42;;;;;;;14.93;10.05;;;;;;;;;;5032710;28;20212;-65
2023/10/26 13:06:07;;;;;;;15.23;9.75;;;;;;;;;;5035227;28;20174;-65
2023/10/26 13:08:32;;;;;;;18.35;10.98;;;;;;;;;;5033015;28;20182;-64
2023/10/26 13:10:57;;;;;;;15.48;10.55;;;;;;;;;;5035061;28;20566;-65
2023/10/26 13:13:22;;;;;;;14.90;9.93;;;;;;;;;;5032680;28;20293;-64
2023/10/26 13:15:47;;;;;;;18.17;10.32;;;;;;;;;;5033979;28;20177;-65
2023/10/26 13:18:13;;;;;;;13.60;9.07;;;;;;;;;;5032751;28;20170;-64
2023/10/26 13:20:38;;;;;;;17.98;9.82;;;;;;;;;;5032322;28;20174;-65
2023/10/26 13:23:03;;;;;;;16.83;10.00;;;;;;;;;;5031694;28;20182;-64
2023/10/26 13:25:29;;;;;;;13.15;9.20;;;;;;;;;;5032247;28;20182;-64
2023/10/26 13:27:54;;;;;;;14.63;9.18;;;;;;;;;;5031659;28;20186;-63
2023/10/26 13:30:20;;;;;;;18.80;10.25;;;;;;;;;;5029964;28;20221;-64
2023/10/26 13:32:45;;;;;;;17.23;10.70;;;;;;;;;;5027416;28;20792;-64
2023/10/26 13:35:11;;;;;;;19.42;10.68;;;;;;;;;;5029337;28;20304;-66
2023/10/26 13:37:36;;;;;;;13.77;9.43;;;;;;;;;;5030664;28;20657;-65
2023/10/26 13:40:02;;;;;;;16.55;10.20;;;;;;;;;;5030167;28;20231;-63
2023/10/26 13:42:27;;;;;;;17.92;10.05;;;;;;;;;;5030458;28;20178;-64
2023/10/26 13:44:52;;;;;;;14.57;9.85;;;;;;;;;;5031958;28;20580;-64
2023/10/26 13:47:19;;;;;;;14.38;9.60;;;;;;;;;;5031892;28;20280;-64
2023/10/26 13:49:44;;;;;;;14.73;9.70;;;;;;;;;;5031016;28;20630;-64
2023/10/26 13:52:09;;;;;;;14.10;9.65;;;;;;;;;;5032532;28;20206;-65
2023/10/26 13:54:34;;;;;;;13.95;8.77;;;;;;;;;;5031694;28;20212;-65
2023/10/26 13:57:00;;;;;;;14.48;8.88;;;;;;;;;;5030692;28;20197;-64
2023/10/26 13:59:25;;;;;;;16.10;9.65;;;;;;;;;;5029592;28;20193;-65
2023/10/26 14:01:50;;;;;;;15.68;10.20;;;;;;;;;;5031499;28;20178;-65
2023/10/26 14:04:15;;;;;;;15.38;10.10;;;;;;;;;;5035052;28;20238;-67
2023/10/26 14:06:41;;;;;;;14.07;9.15;;;;;;;;;;5033247;28;20181;-64
2023/10/26 14:09:06;;;;;;;15.23;9.38;;;;;;;;;;5034695;28;20220;-64
2023/10/26 14:11:31;;;;;;;14.32;9.95;;;;;;;;;;5032498;28;20178;-63